createdAt,value
2018-01-01T00:02:08.510Z,10.70
2018-01-01T00:04:36.171Z,10.60
2018-01-01T00:07:03.827Z,10.60
2018-01-01T00:09:31.469Z,10.60
2018-01-01T00:11:59.915Z,10.70
2018-01-01T00:14:27.516Z,10.60
2018-01-01T00:16:55.972Z,10.60
2018-01-01T00:19:23.609Z,10.60
2018-01-01T00:21:51.327Z,10.70
2018-01-01T00:24:19.769Z,10.60
2018-01-01T00:26:47.429Z,10.60
2018-01-01T00:29:15.100Z,10.70
2018-01-01T00:31:42.780Z,10.70
2018-01-01T00:34:10.375Z,10.70
2018-01-01T00:36:38.786Z,10.80
2018-01-01T00:39:06.478Z,10.70
2018-01-01T00:41:34.109Z,10.70
2018-01-01T00:44:02.582Z,10.70
2018-01-01T00:46:30.168Z,10.70
2018-01-01T00:48:58.582Z,10.80
2018-01-01T00:51:26.199Z,10.70
2018-01-01T00:53:54.574Z,10.80
2018-01-01T00:56:22.257Z,10.80
2018-01-01T00:58:50.674Z,10.70
2018-01-01T01:01:18.295Z,10.70
2018-01-01T01:03:45.920Z,10.60
2018-01-01T01:06:13.580Z,10.70
2018-01-01T01:08:41.204Z,10.70
2018-01-01T01:11:08.870Z,10.70
2018-01-01T01:13:37.249Z,10.70
2018-01-01T01:16:05.637Z,10.60
2018-01-01T01:18:34.055Z,10.60
2018-01-01T01:21:01.668Z,10.60
2018-01-01T01:23:29.342Z,10.60
2018-01-01T01:25:57.023Z,10.60
2018-01-01T01:28:25.424Z,10.50
2018-01-01T01:30:53.850Z,10.50
2018-01-01T01:33:21.499Z,10.40
2018-01-01T01:35:49.178Z,10.50
2018-01-01T01:38:16.822Z,10.50
2018-01-01T01:40:44.439Z,10.50
2018-01-01T01:43:12.060Z,10.40
2018-01-01T01:45:39.686Z,10.30
2018-01-01T01:48:08.140Z,10.40
2018-01-01T01:50:35.812Z,10.30
2018-01-01T01:53:03.449Z,10.30
2018-01-01T01:55:31.039Z,10.40
2018-01-01T01:57:58.738Z,10.40
2018-01-01T02:00:27.272Z,10.30
2018-01-01T02:02:54.910Z,10.30
2018-01-01T02:05:22.540Z,10.40
2018-01-01T02:07:50.174Z,10.30
2018-01-01T02:10:17.810Z,10.20
2018-01-01T02:12:46.206Z,10.30
2018-01-01T02:15:14.024Z,10.30
2018-01-01T02:17:41.672Z,10.30
2018-01-01T02:20:09.424Z,10.20
2018-01-01T02:22:37.055Z,10.20
2018-01-01T02:25:05.451Z,10.30
2018-01-01T02:27:33.858Z,10.20
2018-01-01T02:30:01.507Z,10.20
2018-01-01T02:32:33.221Z,10.30
2018-01-01T02:35:00.977Z,10.40
2018-01-01T02:37:28.682Z,10.40
2018-01-01T02:39:57.035Z,10.40
2018-01-01T02:42:24.742Z,10.40
2018-01-01T02:44:52.419Z,10.30
2018-01-01T02:47:20.107Z,10.30
2018-01-01T02:49:47.810Z,10.20
2018-01-01T02:52:15.532Z,10.20
2018-01-01T02:54:43.149Z,10.20
2018-01-01T02:57:10.790Z,10.20
2018-01-01T02:59:38.446Z,10.20
2018-01-01T03:02:06.130Z,10.20
2018-01-01T03:04:33.780Z,10.10
2018-01-01T03:07:01.401Z,10.20
2018-01-01T03:09:29.813Z,10.20
2018-01-01T03:11:57.402Z,10.20
2018-01-01T03:14:25.194Z,10.30
2018-01-01T03:16:52.828Z,10.20
2018-01-01T03:19:20.468Z,10.20
2018-01-01T03:21:48.879Z,10.10
2018-01-01T03:24:16.555Z,10.10
2018-01-01T03:26:44.215Z,10.10
2018-01-01T03:29:11.828Z,10.10
2018-01-01T03:31:39.423Z,10.20
2018-01-01T03:34:07.061Z,10.10
2018-01-01T03:36:34.675Z,10.10
2018-01-01T03:39:02.316Z,10.20
2018-01-01T03:41:30.673Z,10.10
2018-01-01T03:43:58.306Z,10.10
2018-01-01T03:46:25.917Z,10.10
2018-01-01T03:48:54.450Z,10.20
2018-01-01T03:51:22.091Z,10.10
2018-01-01T03:53:49.747Z,10.10
2018-01-01T03:56:18.181Z,10.10
2018-01-01T03:58:45.790Z,10.10
2018-01-01T04:01:14.195Z,10.00
2018-01-01T04:03:41.785Z,10.00
2018-01-01T04:06:09.445Z,10.00
2018-01-01T04:08:37.065Z,10.00
2018-01-01T04:11:04.684Z,9.90
2018-01-01T04:13:32.311Z,9.90
2018-01-01T04:16:00.698Z,9.70
2018-01-01T04:18:29.074Z,9.60
2018-01-01T04:20:57.512Z,9.60
2018-01-01T04:23:25.193Z,9.50
2018-01-01T04:25:52.804Z,9.70
2018-01-01T04:28:20.453Z,9.70
2018-01-01T04:30:48.809Z,9.70
2018-01-01T04:33:17.236Z,9.60
2018-01-01T04:35:44.850Z,9.60
2018-01-01T04:38:12.437Z,9.60
2018-01-01T04:40:40.050Z,9.60
2018-01-01T04:43:07.652Z,9.60
2018-01-01T04:45:35.324Z,9.60
2018-01-01T04:48:02.975Z,9.60
2018-01-01T04:50:30.936Z,9.50
2018-01-01T04:52:58.550Z,9.50
2018-01-01T04:55:27.364Z,9.40
2018-01-01T04:57:54.986Z,9.40
2018-01-01T05:00:22.608Z,9.40
2018-01-01T05:02:50.219Z,9.30
2018-01-01T05:05:17.882Z,9.40
2018-01-01T05:07:45.478Z,9.30
2018-01-01T05:10:13.139Z,9.30
2018-01-01T05:12:40.942Z,9.20
2018-01-01T05:15:08.577Z,9.20
2018-01-01T05:17:36.169Z,9.30
2018-01-01T05:20:04.718Z,9.20
2018-01-01T05:22:32.311Z,9.20
2018-01-01T05:24:59.941Z,9.10
2018-01-01T05:27:27.545Z,9.10
2018-01-01T05:29:55.197Z,9.10
2018-01-01T05:32:22.812Z,9.00
2018-01-01T05:34:50.481Z,9.10
2018-01-01T05:37:18.135Z,9.00
2018-01-01T05:39:45.726Z,9.00
2018-01-01T05:42:13.345Z,9.00
2018-01-01T05:44:41.733Z,9.10
2018-01-01T05:47:09.361Z,9.00
2018-01-01T05:49:36.958Z,9.00
2018-01-01T05:52:05.337Z,9.00
2018-01-01T05:54:34.009Z,9.00
2018-01-01T05:57:02.427Z,9.10
2018-01-01T05:59:30.118Z,9.00
2018-01-01T06:01:57.759Z,9.00
2018-01-01T06:04:25.352Z,9.00
2018-01-01T06:06:52.985Z,9.00
2018-01-01T06:09:20.610Z,9.00
2018-01-01T06:11:48.199Z,9.00
2018-01-01T06:14:16.593Z,8.90
2018-01-01T06:16:44.972Z,8.90
2018-01-01T06:19:13.320Z,8.90
2018-01-01T06:21:40.957Z,8.90
2018-01-01T06:24:08.588Z,9.00
2018-01-01T06:26:36.989Z,8.90
2018-01-01T06:29:04.688Z,8.80
2018-01-01T06:31:32.350Z,8.80
2018-01-01T06:33:59.980Z,8.80
2018-01-01T06:36:27.644Z,8.90
2018-01-01T06:38:55.243Z,8.90
2018-01-01T06:41:22.840Z,9.10
2018-01-01T06:43:50.464Z,9.00
2018-01-01T06:46:18.086Z,9.00
2018-01-01T06:48:45.718Z,8.90
2018-01-01T06:51:13.374Z,8.90
2018-01-01T06:53:41.057Z,8.80
2018-01-01T06:56:08.647Z,8.80
2018-01-01T06:58:37.179Z,8.70
2018-01-01T07:01:04.801Z,8.70
2018-01-01T07:03:32.401Z,8.70
2018-01-01T07:06:00.027Z,8.70
2018-01-01T07:08:27.625Z,8.70
2018-01-01T07:10:55.278Z,8.60
2018-01-01T07:13:23.670Z,8.60
2018-01-01T07:15:52.094Z,8.50
2018-01-01T07:18:19.754Z,8.50
2018-01-01T07:20:47.364Z,8.50
2018-01-01T07:23:15.740Z,8.50
2018-01-01T07:25:43.403Z,8.50
2018-01-01T07:28:10.987Z,8.50
2018-01-01T07:30:38.589Z,8.40
2018-01-01T07:33:06.204Z,8.30
2018-01-01T07:35:33.818Z,8.30
2018-01-01T07:38:01.483Z,8.30
2018-01-01T07:40:29.143Z,8.30
2018-01-01T07:42:56.748Z,8.30
2018-01-01T07:45:24.397Z,8.30
2018-01-01T07:47:52.015Z,8.30
2018-01-01T07:50:19.649Z,8.20
2018-01-01T07:52:47.226Z,8.20
2018-01-01T07:55:14.856Z,8.20
2018-01-01T07:57:42.477Z,8.20
2018-01-01T08:00:10.117Z,8.40
2018-01-01T08:02:37.791Z,8.40
2018-01-01T08:05:05.401Z,8.30
2018-01-01T08:07:33.024Z,8.40
2018-01-01T08:10:00.608Z,8.30
2018-01-01T08:12:28.233Z,8.30
2018-01-01T08:14:55.840Z,8.40
2018-01-01T08:17:23.622Z,8.40
2018-01-01T08:19:52.044Z,8.30
2018-01-01T08:22:19.666Z,8.30
2018-01-01T08:24:47.282Z,8.20
2018-01-01T08:27:14.904Z,8.20
2018-01-01T08:29:43.292Z,8.30
2018-01-01T08:32:11.674Z,8.30
2018-01-01T08:34:40.035Z,8.20
2018-01-01T08:37:07.661Z,8.20
2018-01-01T08:39:35.258Z,8.30
2018-01-01T08:42:02.884Z,8.40
2018-01-01T08:44:30.498Z,8.40
2018-01-01T08:46:58.202Z,8.50
2018-01-01T08:49:25.849Z,8.40
2018-01-01T08:51:54.225Z,8.40
2018-01-01T08:54:22.669Z,8.30
2018-01-01T08:56:50.297Z,8.30
2018-01-01T08:59:17.921Z,8.30
2018-01-01T09:01:45.690Z,8.30
2018-01-01T09:04:13.281Z,8.50
2018-01-01T09:06:41.631Z,8.50
2018-01-01T09:09:09.245Z,8.40
2018-01-01T09:11:36.860Z,8.50
2018-01-01T09:14:04.504Z,8.60
2018-01-01T09:16:32.196Z,8.60
2018-01-01T09:18:59.811Z,8.60
2018-01-01T09:21:28.235Z,8.70
2018-01-01T09:23:55.832Z,8.70
2018-01-01T09:26:23.425Z,8.80
2018-01-01T09:28:51.828Z,8.90
2018-01-01T09:31:19.487Z,8.90
2018-01-01T09:33:47.067Z,9.00
2018-01-01T09:36:14.672Z,9.10
2018-01-01T09:38:42.506Z,9.10
2018-01-01T09:41:10.167Z,9.10
2018-01-01T09:46:12.431Z,9.30
2018-01-01T09:48:40.775Z,9.40
2018-01-01T09:51:09.154Z,9.40
2018-01-01T09:53:36.753Z,9.40
2018-01-01T09:56:05.181Z,9.40
2018-01-01T09:58:32.778Z,9.30
2018-01-01T10:01:00.364Z,9.40
2018-01-01T10:03:28.795Z,9.50
2018-01-01T10:05:56.436Z,9.40
2018-01-01T10:08:24.134Z,9.40
2018-01-01T10:10:51.809Z,9.30
2018-01-01T10:13:19.415Z,9.30
2018-01-01T10:15:47.030Z,9.40
2018-01-01T10:18:14.624Z,9.40
2018-01-01T10:20:43.410Z,9.30
2018-01-01T10:23:11.023Z,9.30
2018-01-01T10:25:39.410Z,9.20
2018-01-01T10:28:07.040Z,9.20
2018-01-01T10:30:34.670Z,9.20
2018-01-01T10:33:02.356Z,9.20
2018-01-01T10:35:30.002Z,9.10
2018-01-01T10:37:57.637Z,9.10
2018-01-01T10:40:25.985Z,8.90
2018-01-01T10:42:53.610Z,8.90
2018-01-01T10:45:21.248Z,8.90
2018-01-01T10:47:49.605Z,8.90
2018-01-01T10:50:17.224Z,8.90
2018-01-01T10:52:44.845Z,8.90
2018-01-01T10:55:12.855Z,8.90
2018-01-01T10:57:40.502Z,8.80
2018-01-01T11:00:08.859Z,8.80
2018-01-01T11:02:36.496Z,8.80
2018-01-01T11:05:04.090Z,8.80
2018-01-01T11:07:31.689Z,8.80
2018-01-01T11:10:00.079Z,8.70
2018-01-01T11:12:27.719Z,8.70
2018-01-01T11:14:55.316Z,8.70
2018-01-01T11:17:22.917Z,8.70
2018-01-01T11:19:50.671Z,8.70
2018-01-01T11:22:18.379Z,8.70
2018-01-01T11:24:45.992Z,8.70
2018-01-01T11:27:13.588Z,8.70
2018-01-01T11:29:41.245Z,8.70
2018-01-01T11:32:08.844Z,8.70
2018-01-01T11:34:36.529Z,8.80
2018-01-01T11:37:04.911Z,8.80
2018-01-01T11:39:33.293Z,8.80
2018-01-01T11:42:02.608Z,8.80
2018-01-01T11:44:30.256Z,8.80
2018-01-01T11:46:58.743Z,8.80
2018-01-01T11:49:27.215Z,8.80
2018-01-01T11:51:54.794Z,8.80
2018-01-01T11:54:22.510Z,8.80
2018-01-01T11:56:50.176Z,8.80
2018-01-01T11:59:17.813Z,8.90
2018-01-01T12:01:46.226Z,8.90
2018-01-01T12:04:13.813Z,8.80
2018-01-01T12:06:41.495Z,8.80
2018-01-01T12:09:09.280Z,8.80
2018-01-01T12:11:37.017Z,8.80
2018-01-01T12:14:04.648Z,8.80
2018-01-01T12:16:32.356Z,8.80
2018-01-01T12:19:00.059Z,8.80
2018-01-01T12:21:28.600Z,8.80
2018-01-01T12:23:56.259Z,8.80
2018-01-01T12:26:23.886Z,8.90
2018-01-01T12:28:52.268Z,8.90
2018-01-01T12:31:20.247Z,8.80
2018-01-01T12:33:48.594Z,8.80
2018-01-01T12:36:16.220Z,8.80
2018-01-01T12:38:43.906Z,8.80
2018-01-01T12:41:11.538Z,8.80
2018-01-01T12:43:39.193Z,8.80
2018-01-01T12:46:07.554Z,8.80
2018-01-01T12:48:35.942Z,8.80
2018-01-01T12:51:04.364Z,8.80
2018-01-01T12:53:32.127Z,8.80
2018-01-01T12:55:59.763Z,8.80
2018-01-01T12:58:28.261Z,8.80
2018-01-01T13:00:56.675Z,8.80
2018-01-01T13:03:24.375Z,8.80
2018-01-01T13:05:51.989Z,8.70
2018-01-01T13:08:20.684Z,8.60
2018-01-01T13:10:48.350Z,8.60
2018-01-01T13:13:15.947Z,8.60
2018-01-01T13:15:43.586Z,8.60
2018-01-01T13:18:11.195Z,8.60
2018-01-01T13:20:38.940Z,8.60
2018-01-01T13:23:06.623Z,8.60
2018-01-01T13:25:34.263Z,8.50
2018-01-01T13:28:01.987Z,8.60
2018-01-01T13:30:30.409Z,8.50
2018-01-01T13:32:58.081Z,8.60
2018-01-01T13:35:25.871Z,8.60
2018-01-01T13:37:53.507Z,8.70
2018-01-01T13:40:21.191Z,8.70
2018-01-01T13:42:48.871Z,8.60
2018-01-01T13:45:16.640Z,8.70
2018-01-01T13:47:44.557Z,8.70
2018-01-01T13:50:12.240Z,8.60
2018-01-01T13:52:39.910Z,8.60
2018-01-01T13:55:08.311Z,8.40
2018-01-01T13:57:35.998Z,8.40
2018-01-01T14:00:03.642Z,8.30
2018-01-01T14:02:32.031Z,8.00
2018-01-01T14:04:59.677Z,8.00
2018-01-01T14:07:28.081Z,7.90
2018-01-01T14:09:55.751Z,7.80
2018-01-01T14:12:23.483Z,7.80
2018-01-01T14:14:53.465Z,7.80
2018-01-01T14:17:21.142Z,7.70
2018-01-01T14:19:48.903Z,7.70
2018-01-01T14:22:16.712Z,7.70
2018-01-01T14:24:45.118Z,7.60
2018-01-01T14:27:12.764Z,7.50
2018-01-01T14:29:41.191Z,7.60
2018-01-01T14:32:08.823Z,7.50
2018-01-01T14:34:37.283Z,7.50
2018-01-01T14:37:04.944Z,7.50
2018-01-01T14:39:32.640Z,7.50
2018-01-01T14:42:00.332Z,7.50
2018-01-01T14:44:28.094Z,7.50
2018-01-01T14:46:55.882Z,7.40
2018-01-01T14:49:23.606Z,7.40
2018-01-01T14:51:51.234Z,7.40
2018-01-01T14:54:18.882Z,7.50
2018-01-01T14:56:46.551Z,7.40
2018-01-01T14:59:14.293Z,7.40
2018-01-01T15:01:41.953Z,7.40
2018-01-01T15:04:09.575Z,7.30
2018-01-01T15:06:38.051Z,7.20
2018-01-01T15:09:05.680Z,7.20
2018-01-01T15:11:33.552Z,7.20
2018-01-01T15:14:01.274Z,7.10
2018-01-01T15:16:28.949Z,7.00
2018-01-01T15:18:56.635Z,7.00
2018-01-01T15:21:24.297Z,7.00
2018-01-01T15:23:51.956Z,7.00
2018-01-01T15:26:19.646Z,7.10
2018-01-01T15:28:47.306Z,6.90
2018-01-01T15:31:14.969Z,6.80
2018-01-01T15:33:42.694Z,6.90
2018-01-01T15:36:10.361Z,6.80
2018-01-01T15:38:38.042Z,6.80
2018-01-01T15:41:05.721Z,6.80
2018-01-01T15:43:34.088Z,6.90
2018-01-01T15:46:01.770Z,6.90
2018-01-01T15:48:30.171Z,7.00
2018-01-01T15:50:57.859Z,7.00
2018-01-01T15:53:25.502Z,6.90
2018-01-01T15:55:53.182Z,7.10
2018-01-01T15:58:20.811Z,7.10
2018-01-01T16:00:48.530Z,7.10
2018-01-01T16:03:16.141Z,7.00
2018-01-01T16:05:44.545Z,7.00
2018-01-01T16:08:12.971Z,7.00
2018-01-01T16:10:40.580Z,7.00
2018-01-01T16:13:08.249Z,7.10
2018-01-01T16:15:36.690Z,7.10
2018-01-01T16:18:04.377Z,7.10
2018-01-01T16:20:32.097Z,7.10
2018-01-01T16:23:00.024Z,7.10
2018-01-01T16:25:27.757Z,7.10
2018-01-01T16:27:55.419Z,7.00
2018-01-01T16:30:23.063Z,7.00
2018-01-01T16:32:51.503Z,6.90
2018-01-01T16:35:19.246Z,6.90
2018-01-01T16:37:46.989Z,7.00
2018-01-01T16:40:14.715Z,7.00
2018-01-01T16:42:42.368Z,7.00
2018-01-01T16:45:10.058Z,6.90
2018-01-01T16:47:37.723Z,6.90
2018-01-01T16:50:05.680Z,6.80
2018-01-01T16:52:34.100Z,6.80
2018-01-01T16:55:02.538Z,6.80
2018-01-01T16:57:32.299Z,6.70
2018-01-01T17:00:01.094Z,6.70
2018-01-01T17:02:28.868Z,6.70
2018-01-01T17:04:56.532Z,6.60
2018-01-01T17:07:24.983Z,6.60
2018-01-01T17:09:52.725Z,6.60
2018-01-01T17:12:20.414Z,6.60
2018-01-01T17:14:48.116Z,6.70
2018-01-01T17:17:16.634Z,6.80
2018-01-01T17:19:44.356Z,6.70
2018-01-01T17:22:12.023Z,6.90
2018-01-01T17:24:39.688Z,6.80
2018-01-01T17:27:07.393Z,6.80
2018-01-01T17:29:35.070Z,6.70
2018-01-01T17:32:02.839Z,6.80
2018-01-01T17:34:30.480Z,6.70
2018-01-01T17:36:58.871Z,6.80
2018-01-01T17:39:27.361Z,6.70
2018-01-01T17:41:55.073Z,6.70
2018-01-01T17:44:22.749Z,6.70
2018-01-01T17:46:50.405Z,6.70
2018-01-01T17:49:18.091Z,6.60
2018-01-01T17:51:45.762Z,6.60
2018-01-01T17:54:13.460Z,6.40
2018-01-01T17:56:41.931Z,6.30
2018-01-01T17:59:10.391Z,6.20
2018-01-01T18:01:38.081Z,6.20
2018-01-01T18:04:05.730Z,6.10
2018-01-01T18:06:33.418Z,5.90
2018-01-01T18:09:01.091Z,5.90
2018-01-01T18:11:29.649Z,5.70
2018-01-01T18:13:57.372Z,5.70
2018-01-01T18:16:25.043Z,5.70
2018-01-01T18:18:52.733Z,5.60
2018-01-01T18:21:20.393Z,5.50
2018-01-01T18:23:48.176Z,5.50
2018-01-01T18:26:15.825Z,5.40
2018-01-01T18:28:43.539Z,5.30
2018-01-01T18:31:11.240Z,5.40
2018-01-01T18:33:38.947Z,5.40
2018-01-01T18:36:07.410Z,5.40
2018-01-01T18:38:35.048Z,5.40
2018-01-01T18:41:03.481Z,5.40
2018-01-01T18:43:31.130Z,5.40
2018-01-01T18:45:58.954Z,5.40
2018-01-01T18:48:26.680Z,5.50
2018-01-01T18:50:54.334Z,5.50
2018-01-01T18:53:22.043Z,5.60
2018-01-01T18:55:50.578Z,5.50
2018-01-01T18:58:18.326Z,5.50
2018-01-01T19:00:46.718Z,5.40
2018-01-01T19:03:15.143Z,5.20
2018-01-01T19:05:42.888Z,5.20
2018-01-01T19:08:10.647Z,5.10
2018-01-01T19:10:38.357Z,5.00
2018-01-01T19:13:05.997Z,4.90
2018-01-01T19:15:33.691Z,4.90
2018-01-01T19:18:01.392Z,4.80
2018-01-01T19:20:29.066Z,4.80
2018-01-01T19:22:57.590Z,4.60
2018-01-01T19:25:25.270Z,4.60
2018-01-01T19:27:52.965Z,4.60
2018-01-01T19:30:21.391Z,4.60
2018-01-01T19:32:54.559Z,4.60
2018-01-01T19:35:23.099Z,4.50
2018-01-01T19:37:50.795Z,4.50
2018-01-01T19:40:18.460Z,4.50
2018-01-01T19:42:46.141Z,4.40
2018-01-01T19:45:13.872Z,4.40
2018-01-01T19:47:41.749Z,4.40
2018-01-01T19:50:09.718Z,4.30
2018-01-01T19:52:37.413Z,4.30
2018-01-01T19:55:05.115Z,4.20
2018-01-01T19:57:33.530Z,4.00
2018-01-01T20:00:01.261Z,4.00
2018-01-01T20:02:28.932Z,4.00
2018-01-01T20:04:56.636Z,3.90
2018-01-01T20:07:24.312Z,3.80
2018-01-01T20:09:51.989Z,3.80
2018-01-01T20:12:19.712Z,3.70
2018-01-01T20:14:47.395Z,3.70
2018-01-01T20:17:15.840Z,3.70
2018-01-01T20:19:43.507Z,3.70
2018-01-01T20:22:11.180Z,3.80
2018-01-01T20:24:38.901Z,3.70
2018-01-01T20:27:06.629Z,3.60
2018-01-01T20:29:34.500Z,3.70
2018-01-01T20:32:02.185Z,3.70
2018-01-01T20:34:30.650Z,3.50
2018-01-01T20:36:58.412Z,3.50
2018-01-01T20:39:26.099Z,3.40
2018-01-01T20:41:54.646Z,3.50
2018-01-01T20:44:22.363Z,3.50
2018-01-01T20:46:50.919Z,3.60
2018-01-01T20:49:18.688Z,3.60
2018-01-01T20:51:46.379Z,3.60
2018-01-01T20:54:14.924Z,3.50
2018-01-01T20:56:42.905Z,3.50
2018-01-01T20:59:10.646Z,3.50
2018-01-01T21:01:38.324Z,3.60
2018-01-01T21:04:07.250Z,3.60
2018-01-01T21:06:34.911Z,3.70
2018-01-01T21:09:02.559Z,3.60
2018-01-01T21:11:30.281Z,3.60
2018-01-01T21:13:59.849Z,3.50
2018-01-01T21:16:27.640Z,3.50
2018-01-01T21:18:55.529Z,3.50
2018-01-01T21:21:23.992Z,3.40
2018-01-01T21:23:51.678Z,3.40
2018-01-01T21:26:19.326Z,3.40
2018-01-01T21:28:47.020Z,3.40
2018-01-01T21:31:15.479Z,3.40
2018-01-01T21:33:43.253Z,3.40
2018-01-01T21:36:11.061Z,3.50
2018-01-01T21:38:38.771Z,3.50
2018-01-01T21:41:06.512Z,3.50
2018-01-01T21:43:34.227Z,3.40
2018-01-01T21:46:01.945Z,3.40
2018-01-01T21:48:29.583Z,3.40
2018-01-01T21:50:58.032Z,3.40
2018-01-01T21:53:25.707Z,3.40
2018-01-01T21:55:53.457Z,3.30
2018-01-01T21:58:21.157Z,3.30
2018-01-01T22:00:48.875Z,3.30
2018-01-01T22:03:16.532Z,3.30
2018-01-01T22:05:44.260Z,3.40
2018-01-01T22:08:11.998Z,3.30
2018-01-01T22:10:39.638Z,3.40
2018-01-01T22:13:07.318Z,3.40
2018-01-01T22:15:35.045Z,3.40
2018-01-01T22:18:02.661Z,3.40
2018-01-01T22:20:30.435Z,3.20
2018-01-01T22:22:58.109Z,3.10
2018-01-01T22:25:25.863Z,3.00
2018-01-01T22:27:53.599Z,3.00
2018-01-01T22:30:22.013Z,2.90
2018-01-01T22:32:49.698Z,2.90
2018-01-01T22:35:17.404Z,2.90
2018-01-01T22:37:45.816Z,2.90
2018-01-01T22:40:13.606Z,2.90
2018-01-01T22:42:41.258Z,3.00
2018-01-01T22:45:08.901Z,2.90
2018-01-01T22:47:37.326Z,3.00
2018-01-01T22:50:05.095Z,2.90
2018-01-01T22:52:32.814Z,3.00
2018-01-01T22:55:01.278Z,3.00
2018-01-01T22:57:28.937Z,3.00
2018-01-01T22:59:56.622Z,3.00
2018-01-01T23:02:24.265Z,2.90
2018-01-01T23:04:51.946Z,2.90
2018-01-01T23:07:19.594Z,2.90
2018-01-01T23:09:47.357Z,2.90
2018-01-01T23:12:15.113Z,3.00
2018-01-01T23:14:42.821Z,2.90
2018-01-01T23:17:10.495Z,2.90
2018-01-01T23:19:38.283Z,2.90
2018-01-01T23:22:06.006Z,2.90
2018-01-01T23:24:33.666Z,2.90
2018-01-01T23:27:01.342Z,3.00
2018-01-01T23:29:29.047Z,2.90
2018-01-01T23:31:56.799Z,2.90
2018-01-01T23:34:25.304Z,2.90
2018-01-01T23:36:53.803Z,3.00
2018-01-01T23:39:21.712Z,3.00
2018-01-01T23:41:49.632Z,3.00
2018-01-01T23:44:17.349Z,3.00
2018-01-01T23:46:45.037Z,3.00
2018-01-01T23:49:13.542Z,2.80
2018-01-01T23:51:41.213Z,2.80
2018-01-01T23:54:08.891Z,2.80
2018-01-01T23:56:37.335Z,2.90
2018-01-01T23:59:04.984Z,2.90
